Time;durP1;ratioP1;P1;durP2;ratioP2;P2;SDS_P1;SDS_P2;PMS_P1;PMS_P2;Temp;Humidity;BMP_temperature;BMP_pressure;BME280_temperature;BME280_humidity;BME280_pressure;Samples;Min_cycle;Max_cycle;Signal;HPM_P1;HPM_P2
2022/10/28 00:01:12;;;;;;;0.90;0.60;;;16.70;1.00;;;;;;5120665;28;20494;-71
2022/10/28 00:03:40;;;;;;;1.10;0.70;;;16.70;1.00;;;;;;5120497;28;20464;-71
2022/10/28 00:06:09;;;;;;;1.40;0.70;;;16.70;1.00;;;;;;5120026;28;20436;-71
2022/10/28 00:08:36;;;;;;;1.37;0.60;;;16.70;1.00;;;;;;5120101;28;20448;-71
2022/10/28 00:11:07;;;;;;;2.53;0.70;;;16.70;1.00;;;;;;5120341;28;20879;-71
2022/10/28 00:13:34;;;;;;;2.93;0.90;;;16.60;1.00;;;;;;5119597;28;20460;-72
2022/10/28 00:16:09;;;;;;;1.20;0.60;;;16.60;1.00;;;;;;5120099;28;20449;-71
2022/10/28 00:18:36;;;;;;;0.73;0.50;;;16.60;1.00;;;;;;5120462;28;20549;-72
2022/10/28 00:21:06;;;;;;;1.17;0.60;;;16.60;1.00;;;;;;5120231;28;20732;-72
2022/10/28 00:23:34;;;;;;;0.70;0.50;;;16.70;1.00;;;;;;5120268;28;20525;-72
2022/10/28 00:26:07;;;;;;;2.70;0.70;;;16.60;1.00;;;;;;5119767;28;20445;-72
2022/10/28 00:28:34;;;;;;;2.70;0.73;;;16.60;1.00;;;;;;5119230;28;20452;-71
2022/10/28 00:31:05;;;;;;;1.10;0.60;;;16.60;1.00;;;;;;5119844;28;20445;-71
2022/10/28 00:33:33;;;;;;;1.33;0.60;;;16.60;1.00;;;;;;5119842;28;20876;-72
2022/10/28 00:36:12;;;;;;;2.47;0.70;;;16.60;1.00;;;;;;5119778;28;20448;-72
2022/10/28 00:38:39;;;;;;;6.20;0.70;;;16.60;1.00;;;;;;5119731;28;20755;-72
2022/10/28 00:41:08;;;;;;;0.90;0.60;;;16.70;1.00;;;;;;5119637;28;20437;-72
2022/10/28 00:43:37;;;;;;;1.00;0.70;;;16.70;1.00;;;;;;5119594;28;20456;-72
2022/10/28 00:46:10;;;;;;;1.20;0.70;;;16.80;1.00;;;;;;5119500;28;20773;-72
2022/10/28 00:48:40;;;;;;;1.70;0.70;;;16.80;1.00;;;;;;5120058;28;20452;-72
2022/10/28 00:51:08;;;;;;;1.77;0.73;;;16.70;1.00;;;;;;5119944;28;20479;-72
2022/10/28 00:53:38;;;;;;;1.43;0.60;;;16.70;1.00;;;;;;5119173;28;20558;-72
2022/10/28 00:56:07;;;;;;;1.30;0.60;;;16.70;1.00;;;;;;5119257;28;20480;-71
2022/10/28 00:58:34;;;;;;;1.47;0.80;;;16.70;5.50;;;;;;5118833;28;20890;-71
2022/10/28 01:01:01;;;;;;;1.57;0.70;;;16.70;6.40;;;;;;5117668;28;20448;-71
2022/10/28 01:03:28;;;;;;;1.17;0.60;;;16.70;1.00;;;;;;5118689;28;20448;-71
2022/10/28 01:05:56;;;;;;;2.20;0.60;;;16.70;2.10;;;;;;5119165;28;20568;-72
2022/10/28 01:08:22;;;;;;;1.20;0.60;;;16.80;4.90;;;;;;5118573;28;20448;-71
2022/10/28 01:11:22;;;;;;;1.20;0.70;;;16.80;1.00;;;;;;5119306;28;20453;-71
2022/10/28 01:14:04;;;;;;;1.03;0.70;;;16.80;1.00;;;;;;5120017;28;20574;-71
2022/10/28 01:16:38;;;;;;;3.83;0.70;;;16.70;1.00;;;;;;5119969;28;20449;-71
2022/10/28 01:19:33;;;;;;;0.93;0.60;;;16.70;3.50;;;;;;5120333;28;20488;-72
2022/10/28 01:22:12;;;;;;;3.00;0.70;;;16.60;5.50;;;;;;5120421;28;20812;-72
2022/10/28 01:24:56;;;;;;;2.77;0.73;;;16.60;14.30;;;;;;5119716;28;20456;-72
2022/10/28 01:27:56;;;;;;;1.50;0.80;;;16.50;12.10;;;;;;5119243;28;20526;-72
2022/10/28 01:30:26;;;;;;;1.90;0.70;;;16.50;17.40;;;;;;5119205;28;20513;-71
2022/10/28 01:33:04;;;;;;;1.13;0.63;;;16.40;17.20;;;;;;5118272;28;20498;-71
2022/10/28 01:35:38;;;;;;;2.10;0.60;;;16.50;14.60;;;;;;5118050;28;20509;-71
2022/10/28 01:38:25;;;;;;;0.87;0.60;;;16.40;16.30;;;;;;5117972;28;20945;-72
2022/10/28 01:40:58;;;;;;;2.20;0.80;;;16.50;13.50;;;;;;5114581;28;20681;-72
2022/10/28 01:43:29;;;;;;;1.53;0.80;;;16.50;23.00;;;;;;5118559;28;20472;-71
2022/10/28 01:46:03;;;;;;;2.40;0.70;;;16.40;15.70;;;;;;5118543;28;20448;-72
2022/10/28 01:48:36;;;;;;;2.30;0.57;;;16.50;15.70;;;;;;5119090;28;20489;-72
2022/10/28 01:51:07;;;;;;;1.70;0.60;;;16.40;14.80;;;;;;5118792;28;20875;-73
2022/10/28 01:53:40;;;;;;;0.70;0.60;;;16.50;8.90;;;;;;5118450;28;20484;-72
2022/10/28 01:56:10;;;;;;;1.10;0.60;;;16.50;6.90;;;;;;5117390;28;20445;-72
2022/10/28 01:58:38;;;;;;;2.40;0.70;;;16.50;9.10;;;;;;5118166;28;20541;-71
2022/10/28 02:01:07;;;;;;;1.13;0.70;;;16.50;17.60;;;;;;5118294;28;20501;-72
2022/10/28 02:03:36;;;;;;;1.27;0.70;;;16.40;17.40;;;;;;5118800;28;20452;-72
2022/10/28 02:06:06;;;;;;;2.90;0.70;;;16.40;14.90;;;;;;5118460;28;20449;-72
2022/10/28 02:08:48;;;;;;;1.43;0.73;;;16.40;13.30;;;;;;5118176;28;20518;-72
2022/10/28 02:11:59;;;;;;;1.33;0.80;;;16.40;11.10;;;;;;5118006;28;20450;-72
2022/10/28 02:14:40;;;;;;;1.10;0.60;;;16.40;13.90;;;;;;5072656;28;20510;-70
2022/10/28 02:17:16;;;;;;;2.83;0.80;;;16.40;12.20;;;;;;5117882;28;20498;-70
2022/10/28 02:19:50;;;;;;;1.40;0.80;;;16.40;6.00;;;;;;5117204;28;20572;-70
2022/10/28 02:22:23;;;;;;;2.33;0.67;;;16.50;16.30;;;;;;5117685;28;20844;-71
2022/10/28 02:24:57;;;;;;;2.50;0.80;;;16.50;13.80;;;;;;5118120;28;20514;-71
2022/10/28 02:27:33;;;;;;;0.67;0.50;;;16.40;14.90;;;;;;5117318;28;20483;-71
2022/10/28 02:30:05;;;;;;;1.40;0.60;;;16.50;14.70;;;;;;5118116;28;20509;-71
2022/10/28 02:32:38;;;;;;;1.97;0.70;;;16.50;4.30;;;;;;5117054;28;20872;-71
2022/10/28 02:35:13;;;;;;;1.93;0.80;;;16.40;5.80;;;;;;5117735;28;20453;-71
2022/10/28 02:37:42;;;;;;;0.90;0.70;;;16.40;10.80;;;;;;5117752;28;20497;-71
2022/10/28 02:40:15;;;;;;;1.20;0.70;;;16.40;5.30;;;;;;5118173;28;20538;-71
2022/10/28 02:42:46;;;;;;;0.90;0.60;;;16.40;10.50;;;;;;5117295;28;20441;-71
2022/10/28 02:45:16;;;;;;;1.80;0.70;;;16.40;15.50;;;;;;5117826;28;20452;-71
2022/10/28 02:47:47;;;;;;;1.03;0.70;;;16.40;17.00;;;;;;5117412;28;20455;-71
2022/10/28 02:50:20;;;;;;;1.33;0.60;;;16.30;17.50;;;;;;5115182;28;20807;-72
2022/10/28 02:52:51;;;;;;;1.50;0.60;;;16.30;20.70;;;;;;5111387;28;20441;-72
2022/10/28 02:55:20;;;;;;;3.03;0.70;;;16.20;19.80;;;;;;5117546;28;20513;-71
2022/10/28 02:57:48;;;;;;;8.70;0.70;;;16.30;17.10;;;;;;5117274;28;20449;-71
2022/10/28 03:00:18;;;;;;;1.60;0.70;;;16.30;18.70;;;;;;5117526;28;20537;-72
2022/10/28 03:02:45;;;;;;;5.30;0.70;;;16.30;18.70;;;;;;5116633;28;20449;-71
2022/10/28 03:05:13;;;;;;;1.37;0.60;;;16.40;16.80;;;;;;5117118;28;20444;-71
2022/10/28 03:07:41;;;;;;;3.37;0.80;;;16.40;24.70;;;;;;5118194;28;20449;-71
2022/10/28 03:10:09;;;;;;;2.00;0.70;;;16.40;15.50;;;;;;5115772;28;20444;-71
2022/10/28 03:12:36;;;;;;;1.43;0.70;;;16.40;22.30;;;;;;5109616;28;20564;-71
2022/10/28 03:15:03;;;;;;;1.67;0.60;;;16.40;21.70;;;;;;5116525;28;20445;-71
2022/10/28 03:17:30;;;;;;;1.10;0.63;;;16.40;17.20;;;;;;5116173;28;20452;-71
2022/10/28 03:19:57;;;;;;;2.10;0.63;;;16.40;18.60;;;;;;5115784;28;20489;-72
2022/10/28 03:22:24;;;;;;;1.17;0.70;;;16.50;8.40;;;;;;5115724;28;20965;-70
2022/10/28 03:24:52;;;;;;;1.30;0.53;;;16.50;1.00;;;;;;5120608;28;20485;-72
2022/10/28 03:27:19;;;;;;;1.30;0.70;;;16.50;2.20;;;;;;5120736;28;20452;-70
2022/10/28 03:29:46;;;;;;;1.73;0.70;;;16.50;2.30;;;;;;5121320;28;20448;-70
2022/10/28 03:32:13;;;;;;;5.23;0.70;;;16.50;5.10;;;;;;5120567;28;20525;-71
2022/10/28 03:34:40;;;;;;;2.17;0.77;;;16.60;3.10;;;;;;5120655;28;20445;-71
2022/10/28 03:37:07;;;;;;;2.03;0.70;;;16.60;4.00;;;;;;5121190;28;20456;-71
2022/10/28 03:39:34;;;;;;;3.47;0.70;;;16.60;2.30;;;;;;5121219;28;20472;-71
2022/10/28 03:42:03;;;;;;;0.90;0.60;;;16.60;1.00;;;;;;5112275;28;20742;-71
2022/10/28 03:47:51;;;;;;;1.10;0.80;;;16.70;1.00;;;;;;5080233;28;20437;-70
2022/10/28 03:50:18;;;;;;;1.23;0.60;;;16.70;1.00;;;;;;5079437;28;20443;-70
2022/10/28 03:52:45;;;;;;;3.70;0.77;;;16.70;1.00;;;;;;5079839;28;20512;-70
2022/10/28 03:55:12;;;;;;;1.80;0.80;;;16.70;1.00;;;;;;5078498;28;20450;-70
2022/10/28 03:57:41;;;;;;;1.40;0.80;;;16.70;1.00;;;;;;5077864;28;20454;-70
2022/10/28 04:00:09;;;;;;;1.73;0.90;;;16.70;6.30;;;;;;5076693;28;20486;-70
2022/10/28 04:02:36;;;;;;;3.70;0.90;;;16.50;19.40;;;;;;5078325;28;20477;-71
2022/10/28 04:05:03;;;;;;;2.73;0.80;;;16.20;36.70;;;;;;5079111;28;20515;-70
2022/10/28 04:07:30;;;;;;;1.93;0.80;;;16.00;57.30;;;;;;5078701;28;20454;-71
2022/10/28 04:09:57;;;;;;;2.77;0.87;;;15.90;69.20;;;;;;5079241;28;20468;-71
2022/10/28 04:12:24;;;;;;;1.60;0.80;;;15.80;81.50;;;;;;5078592;28;20729;-70
2022/10/28 04:14:53;;;;;;;2.40;0.80;;;15.80;80.10;;;;;;5078658;28;20446;-70
2022/10/28 04:17:20;;;;;;;2.20;0.90;;;15.80;80.20;;;;;;5078541;28;20944;-70
2022/10/28 04:19:47;;;;;;;1.10;0.73;;;15.70;84.30;;;;;;5093137;28;20481;-71
2022/10/28 04:22:14;;;;;;;1.93;0.97;;;15.70;91.10;;;;;;5099437;28;20441;-71
2022/10/28 04:24:41;;;;;;;2.53;0.90;;;15.70;98.10;;;;;;5099767;28;20450;-70
2022/10/28 04:27:07;;;;;;;2.30;0.80;;;15.70;99.90;;;;;;5099094;28;20507;-70
2022/10/28 04:29:35;;;;;;;1.60;0.80;;;15.60;99.90;;;;;;5100226;28;20434;-71
2022/10/28 04:32:03;;;;;;;3.40;0.80;;;15.70;99.90;;;;;;5099407;28;20540;-70
2022/10/28 04:34:30;;;;;;;2.53;0.80;;;15.70;88.80;;;;;;5099265;28;20454;-70
2022/10/28 04:36:57;;;;;;;2.43;0.77;;;15.90;70.10;;;;;;5097986;28;20449;-70
2022/10/28 04:39:24;;;;;;;1.70;0.70;;;16.00;40.30;;;;;;5099771;28;20618;-71
2022/10/28 04:41:51;;;;;;;1.73;0.70;;;16.10;23.50;;;;;;5098874;28;20449;-71
2022/10/28 04:44:17;;;;;;;1.67;0.70;;;16.30;9.50;;;;;;5098446;28;20514;-71
2022/10/28 04:46:44;;;;;;;2.10;0.60;;;16.40;1.00;;;;;;5098745;28;20449;-71
2022/10/28 04:49:13;;;;;;;1.93;0.70;;;16.50;1.00;;;;;;5098110;28;20442;-71
2022/10/28 04:51:40;;;;;;;3.67;0.63;;;16.60;1.00;;;;;;5097385;28;20450;-70
2022/10/28 04:54:07;;;;;;;1.30;0.67;;;16.70;1.00;;;;;;5097997;28;20518;-70
2022/10/28 04:56:34;;;;;;;1.83;0.63;;;16.80;1.00;;;;;;5097703;28;20873;-71
2022/10/28 04:59:01;;;;;;;0.80;0.60;;;16.90;1.00;;;;;;5097723;28;21081;-71
2022/10/28 05:01:28;;;;;;;3.90;0.60;;;16.90;1.00;;;;;;5095850;28;20477;-71
2022/10/28 05:03:55;;;;;;;2.10;0.70;;;17.00;1.00;;;;;;5095987;28;20457;-71
2022/10/28 05:06:23;;;;;;;2.33;0.80;;;16.90;1.00;;;;;;5096682;28;20445;-70
2022/10/28 05:08:50;;;;;;;2.40;0.80;;;16.90;1.00;;;;;;5096687;28;20777;-71
2022/10/28 05:11:17;;;;;;;1.47;0.60;;;16.90;1.00;;;;;;5097124;28;20442;-71
2022/10/28 05:13:44;;;;;;;0.80;0.63;;;16.80;1.00;;;;;;5097703;28;20458;-69
2022/10/28 05:16:11;;;;;;;2.30;0.70;;;16.70;1.00;;;;;;5098379;28;20511;-71
2022/10/28 05:18:38;;;;;;;1.07;0.70;;;16.60;2.10;;;;;;5095877;28;20469;-72
2022/10/28 05:21:05;;;;;;;2.73;0.60;;;16.60;1.00;;;;;;5097062;28;20940;-71
2022/10/28 05:23:33;;;;;;;1.50;0.60;;;16.60;7.30;;;;;;5096277;28;20573;-71
2022/10/28 05:26:00;;;;;;;1.00;0.63;;;16.60;1.00;;;;;;5096410;28;20469;-71
2022/10/28 05:28:27;;;;;;;1.07;0.60;;;16.50;1.00;;;;;;5096600;28;20859;-71
2022/10/28 05:30:54;;;;;;;2.50;0.60;;;16.60;1.00;;;;;;5096736;28;20503;-70
2022/10/28 05:33:21;;;;;;;1.10;0.60;;;16.60;1.00;;;;;;5096690;28;20457;-70
2022/10/28 05:35:48;;;;;;;2.23;0.63;;;16.70;1.00;;;;;;5096782;28;20446;-71
2022/10/28 05:38:15;;;;;;;2.83;0.53;;;16.80;1.00;;;;;;5096970;28;20515;-71
2022/10/28 05:40:44;;;;;;;4.97;0.50;;;16.80;1.00;;;;;;5095856;28;20482;-71
2022/10/28 05:43:10;;;;;;;2.50;0.60;;;16.80;1.00;;;;;;5096601;28;20453;-71
2022/10/28 05:45:37;;;;;;;1.63;0.70;;;16.80;1.00;;;;;;5096707;28;20442;-71
2022/10/28 05:48:05;;;;;;;1.60;0.70;;;16.80;1.00;;;;;;5094718;28;20464;-71
2022/10/28 05:50:32;;;;;;;1.53;0.50;;;16.80;1.00;;;;;;5093945;28;20438;-71
2022/10/28 05:52:59;;;;;;;1.37;0.60;;;16.80;1.00;;;;;;5096094;28;20453;-72
2022/10/28 05:55:28;;;;;;;1.30;0.70;;;16.80;1.00;;;;;;5095280;28;20446;-71
2022/10/28 05:57:56;;;;;;;1.83;0.60;;;16.80;1.00;;;;;;5095586;28;20457;-71
2022/10/28 06:00:27;;;;;;;1.70;0.60;;;16.90;1.00;;;;;;5094925;28;20489;-71
2022/10/28 06:03:02;;;;;;;1.40;0.60;;;16.90;1.00;;;;;;5095328;28;20560;-70
2022/10/28 06:05:29;;;;;;;1.07;0.60;;;16.90;1.00;;;;;;5095947;28;20544;-70
2022/10/28 06:07:56;;;;;;;1.20;0.50;;;17.00;1.00;;;;;;5096241;28;20488;-71
2022/10/28 06:10:23;;;;;;;3.13;0.70;;;17.00;1.00;;;;;;5096059;28;21117;-71
2022/10/28 06:12:54;;;;;;;0.80;0.50;;;17.00;1.00;;;;;;5097394;28;20885;-71
2022/10/28 06:15:23;;;;;;;2.83;0.50;;;17.00;1.00;;;;;;5105219;28;20828;-71
2022/10/28 06:17:50;;;;;;;0.70;0.50;;;17.10;1.00;;;;;;5101725;28;20739;-71
2022/10/28 06:20:19;;;;;;;0.90;0.60;;;17.10;1.00;;;;;;5109956;28;20484;-71
2022/10/28 06:22:50;;;;;;;1.83;0.50;;;17.10;1.00;;;;;;5102968;28;20453;-70
2022/10/28 06:25:18;;;;;;;0.70;0.40;;;17.20;1.00;;;;;;5112236;28;20506;-72
2022/10/28 06:27:45;;;;;;;0.97;0.60;;;17.20;1.00;;;;;;5098109;28;20445;-72
2022/10/28 06:30:13;;;;;;;1.20;0.63;;;17.30;1.00;;;;;;5107733;28;20441;-73
2022/10/28 06:32:41;;;;;;;2.63;0.50;;;17.40;1.00;;;;;;5113015;28;20493;-72
2022/10/28 06:35:08;;;;;;;1.10;0.70;;;17.40;99.90;;;;;;5100206;28;20530;-72
2022/10/28 06:37:35;;;;;;;1.20;0.50;;;17.40;1.00;;;;;;5112417;28;20506;-72
2022/10/28 06:40:02;;;;;;;1.27;0.57;;;17.40;99.90;;;;;;5094921;28;20535;-72
2022/10/28 06:42:29;;;;;;;1.23;0.50;;;17.50;99.90;;;;;;5106678;28;20880;-72
2022/10/28 06:44:56;;;;;;;1.10;0.67;;;17.50;99.90;;;;;;5100792;28;20514;-72
2022/10/28 06:47:23;;;;;;;1.40;0.63;;;17.50;99.90;;;;;;5112397;28;20444;-72
2022/10/28 06:49:52;;;;;;;4.30;0.50;;;17.50;99.90;;;;;;5100826;28;20483;-72
2022/10/28 06:52:19;;;;;;;1.10;0.60;;;17.60;1.00;;;;;;5105817;28;20445;-72
2022/10/28 06:54:45;;;;;;;1.10;0.50;;;17.60;1.00;;;;;;5107049;28;20456;-72
2022/10/28 06:57:12;;;;;;;4.17;0.60;;;17.60;1.00;;;;;;5099120;28;20918;-72
2022/10/28 06:59:40;;;;;;;2.20;0.80;;;17.70;1.00;;;;;;5111607;28;20491;-72
2022/10/28 07:02:10;;;;;;;1.73;0.50;;;17.80;1.00;;;;;;5102731;28;20472;-72
2022/10/28 07:04:37;;;;;;;1.77;0.50;;;17.80;1.00;;;;;;5103532;28;20487;-72
2022/10/28 07:07:06;;;;;;;1.53;0.47;;;17.70;1.00;;;;;;5109988;28;20833;-71
2022/10/28 07:09:35;;;;;;;0.60;0.37;;;17.80;3.70;;;;;;5112286;28;20445;-71
2022/10/28 07:12:02;;;;;;;1.70;0.60;;;17.80;99.90;;;;;;5102768;28;20447;-71
2022/10/28 07:14:29;;;;;;;1.37;0.60;;;17.80;99.90;;;;;;5115874;28;20452;-72
2022/10/28 07:16:56;;;;;;;1.90;0.70;;;17.90;99.90;;;;;;5100925;28;20503;-72
2022/10/28 07:19:23;;;;;;;2.27;0.70;;;18.00;1.00;;;;;;5111448;28;20537;-71
2022/10/28 07:21:50;;;;;;;3.13;0.50;;;18.00;1.00;;;;;;5101634;28;20843;-71
2022/10/28 07:24:18;;;;;;;1.00;0.60;;;18.10;99.90;;;;;;5106682;28;20441;-71
2022/10/28 07:26:48;;;;;;;2.60;0.60;;;18.10;99.90;;;;;;5108409;28;20772;-71
2022/10/28 07:29:15;;;;;;;1.50;0.60;;;18.10;1.00;;;;;;5098605;28;20479;-71
2022/10/28 07:31:42;;;;;;;3.83;0.67;;;18.10;1.00;;;;;;5111901;28;20218;-70
2022/10/28 07:34:09;;;;;;;1.00;0.50;;;18.10;99.90;;;;;;5103307;28;20445;-70
2022/10/28 07:36:38;;;;;;;0.90;0.50;;;18.10;1.00;;;;;;5114452;28;20444;-72
2022/10/28 07:39:05;;;;;;;0.87;0.50;;;18.10;1.00;;;;;;5098379;28;21052;-71
2022/10/28 07:41:33;;;;;;;1.03;0.60;;;18.10;1.00;;;;;;5097441;28;20469;-71
2022/10/28 07:44:00;;;;;;;2.20;0.80;;;18.00;99.90;;;;;;5108667;28;20442;-71
2022/10/28 07:46:27;;;;;;;2.23;0.60;;;17.90;1.00;;;;;;5106476;28;20448;-71
2022/10/28 07:48:54;;;;;;;2.50;0.50;;;17.80;99.90;;;;;;5100094;28;20870;-70
2022/10/28 07:51:21;;;;;;;1.10;0.50;;;17.90;99.90;;;;;;5111031;28;20472;-71
2022/10/28 07:53:48;;;;;;;1.10;0.40;;;18.00;1.00;;;;;;5099753;28;20493;-70
2022/10/28 07:56:15;;;;;;;2.17;0.63;;;18.10;1.00;;;;;;5115525;28;20811;-71
2022/10/28 07:58:45;;;;;;;1.40;0.50;;;18.10;99.90;;;;;;5101424;28;20476;-70
2022/10/28 08:01:14;;;;;;;0.83;0.50;;;18.10;1.00;;;;;;5111203;28;20480;-71
2022/10/28 08:03:41;;;;;;;1.40;0.60;;;18.20;1.00;;;;;;5098015;28;20490;-71
2022/10/28 08:06:11;;;;;;;2.30;0.60;;;18.20;1.00;;;;;;5106640;28;20869;-71
2022/10/28 08:08:39;;;;;;;1.10;0.50;;;18.20;1.00;;;;;;5098168;28;20475;-69
2022/10/28 08:11:10;;;;;;;1.43;0.50;;;18.30;91.90;;;;;;5110838;28;20452;-71
2022/10/28 08:13:37;;;;;;;2.00;0.60;;;18.40;1.00;;;;;;5110739;28;20530;-70
2022/10/28 08:16:06;;;;;;;1.30;0.50;;;18.40;99.90;;;;;;5098846;28;20560;-70
2022/10/28 08:18:34;;;;;;;0.93;0.57;;;18.40;99.90;;;;;;5100707;28;20982;-70
2022/10/28 08:21:01;;;;;;;3.50;0.73;;;18.40;99.90;;;;;;5119539;28;20527;-70
2022/10/28 08:23:29;;;;;;;1.67;0.60;;;18.50;99.90;;;;;;5117777;28;20505;-71
2022/10/28 08:25:56;;;;;;;3.43;0.67;;;18.50;99.90;;;;;;5118301;28;20456;-71
2022/10/28 08:28:24;;;;;;;1.77;0.70;;;18.60;99.90;;;;;;5116948;28;20569;-70
2022/10/28 08:30:51;;;;;;;1.10;0.60;;;18.60;99.90;;;;;;5116486;28;20460;-70
2022/10/28 08:33:19;;;;;;;1.27;0.60;;;18.60;1.00;;;;;;5115714;28;20907;-71
2022/10/28 08:35:50;;;;;;;2.47;0.60;;;18.60;1.00;;;;;;5118101;28;20837;-71
2022/10/28 08:38:17;;;;;;;2.53;0.57;;;18.60;1.00;;;;;;5117606;28;20876;-71
2022/10/28 08:40:56;;;;;;;0.93;0.60;;;18.60;99.90;;;;;;5118293;28;20480;-72
2022/10/28 08:43:30;;;;;;;0.93;0.60;;;18.60;1.00;;;;;;5118561;28;20471;-71
2022/10/28 08:46:04;;;;;;;1.47;0.60;;;18.70;91.80;;;;;;5118412;28;20533;-71
2022/10/28 08:48:35;;;;;;;1.40;0.60;;;18.80;1.00;;;;;;5099991;28;20986;-71
2022/10/28 08:51:09;;;;;;;2.17;1.00;;;18.80;99.90;;;;;;5091386;28;20479;-71
2022/10/28 08:53:43;;;;;;;3.90;1.00;;;18.90;1.00;;;;;;5108641;28;20445;-72
2022/10/28 08:56:15;;;;;;;2.17;1.00;;;18.90;99.90;;;;;;5115965;28;20480;-70
2022/10/28 08:58:45;;;;;;;2.50;0.90;;;18.80;1.00;;;;;;5118108;28;20935;-71
2022/10/28 09:01:20;;;;;;;1.37;0.70;;;18.80;1.00;;;;;;5118000;28;20791;-71
2022/10/28 09:03:52;;;;;;;2.33;0.77;;;18.90;99.90;;;;;;5117974;28;20532;-72
2022/10/28 09:06:19;;;;;;;6.57;1.10;;;19.00;1.00;;;;;;5118713;28;20884;-71
2022/10/28 09:08:49;;;;;;;2.10;1.00;;;19.20;99.90;;;;;;5117878;28;20452;-70
2022/10/28 09:11:45;;;;;;;6.00;1.03;;;19.20;99.90;;;;;;5117918;28;20452;-70
2022/10/28 09:14:29;;;;;;;6.00;1.60;;;19.30;1.00;;;;;;5115357;28;20448;-71
2022/10/28 09:17:04;;;;;;;3.47;1.00;;;19.20;1.00;;;;;;5114094;28;20871;-71
2022/10/28 09:19:43;;;;;;;4.73;1.30;;;18.90;1.00;;;;;;5117603;28;20533;-70
2022/10/28 09:22:21;;;;;;;4.03;1.20;;;18.90;1.00;;;;;;5117338;28;20480;-71
2022/10/28 09:24:52;;;;;;;2.67;1.03;;;18.80;1.00;;;;;;5117717;28;20947;-70
2022/10/28 09:27:29;;;;;;;4.37;1.10;;;19.00;1.00;;;;;;5117296;28;20490;-70
2022/10/28 09:30:05;;;;;;;2.70;0.97;;;19.10;1.00;;;;;;5118029;28;20509;-70
2022/10/28 09:32:40;;;;;;;4.23;1.00;;;19.00;99.90;;;;;;5116727;28;20501;-70
2022/10/28 09:35:13;;;;;;;1.37;0.90;;;18.90;1.00;;;;;;5116415;28;20448;-71
2022/10/28 09:37:44;;;;;;;5.40;1.00;;;18.90;1.00;;;;;;5110578;28;20449;-70
2022/10/28 09:40:18;;;;;;;1.60;1.00;;;18.80;1.00;;;;;;5117442;28;20528;-70
2022/10/28 09:42:48;;;;;;;5.33;1.37;;;18.70;1.00;;;;;;5106965;28;20477;-71
2022/10/28 09:45:21;;;;;;;1.57;0.83;;;18.70;1.00;;;;;;5098692;28;20469;-70
2022/10/28 09:47:55;;;;;;;6.43;1.10;;;18.80;1.00;;;;;;5108138;28;20842;-70
2022/10/28 09:50:28;;;;;;;2.23;1.30;;;18.90;1.00;;;;;;5098480;28;20539;-71
2022/10/28 09:53:03;;;;;;;3.80;1.00;;;19.00;1.00;;;;;;5096093;28;20438;-69
2022/10/28 09:55:31;;;;;;;2.50;1.10;;;19.20;1.00;;;;;;5096117;28;20461;-70
2022/10/28 09:57:58;;;;;;;1.33;0.60;;;19.40;99.90;;;;;;5109418;28;20927;-70
2022/10/28 10:00:25;;;;;;;0.90;0.60;;;19.70;99.90;;;;;;5099130;28;20476;-71
2022/10/28 10:02:57;;;;;;;2.27;0.70;;;20.00;57.30;;;;;;5111957;28;20484;-70
2022/10/28 10:05:26;;;;;;;1.57;0.60;;;20.40;1.00;;;;;;5107599;28;20471;-72
2022/10/28 10:07:56;;;;;;;1.07;0.50;;;20.60;85.60;;;;;;5108470;28;20437;-70
2022/10/28 10:10:26;;;;;;;1.73;0.50;;;20.80;99.90;;;;;;5106566;28;20486;-70
2022/10/28 10:12:56;;;;;;;1.13;0.60;;;20.90;99.90;;;;;;5095989;28;20432;-71
2022/10/28 10:15:29;;;;;;;1.73;0.50;;;21.00;1.00;;;;;;5106782;28;20520;-71
2022/10/28 10:17:59;;;;;;;4.90;0.40;;;21.10;1.00;;;;;;5094727;28;20795;-71
2022/10/28 10:20:27;;;;;;;0.83;0.50;;;21.30;1.00;;;;;;5097098;28;20476;-71
2022/10/28 10:22:55;;;;;;;1.87;0.50;;;21.40;1.00;;;;;;5115612;28;20487;-70
2022/10/28 10:25:28;;;;;;;4.40;0.50;;;21.50;1.00;;;;;;5108087;28;20714;-71
2022/10/28 10:27:58;;;;;;;2.70;0.60;;;21.50;1.00;;;;;;5096494;28;20442;-71
2022/10/28 10:30:32;;;;;;;0.60;0.40;;;21.60;1.00;;;;;;5112031;28;20513;-72
2022/10/28 10:32:59;;;;;;;1.50;0.40;;;21.50;1.00;;;;;;5106042;28;20453;-73
2022/10/28 10:35:30;;;;;;;1.83;0.60;;;21.60;1.00;;;;;;5106635;28;20449;-72
2022/10/28 10:38:00;;;;;;;0.43;0.30;;;21.60;1.00;;;;;;5107129;28;20441;-71
2022/10/28 10:40:30;;;;;;;1.00;0.50;;;21.60;1.00;;;;;;5102613;28;20477;-71
2022/10/28 10:43:20;;;;;;;1.90;0.50;;;21.60;99.90;;;;;;5102412;28;20868;-71
2022/10/28 10:45:52;;;;;;;3.03;0.60;;;21.70;99.90;;;;;;5105638;28;20903;-72
2022/10/28 10:48:21;;;;;;;2.60;0.50;;;21.80;99.90;;;;;;5100291;28;20441;-71
2022/10/28 10:50:51;;;;;;;4.23;0.60;;;21.80;99.90;;;;;;5105612;28;20450;-72
2022/10/28 10:53:24;;;;;;;0.80;0.40;;;21.90;99.90;;;;;;5108596;28;20445;-70
2022/10/28 10:55:54;;;;;;;6.30;0.50;;;21.90;99.90;;;;;;5098004;28;20458;-70
2022/10/28 10:58:24;;;;;;;1.47;0.40;;;21.80;1.00;;;;;;5107959;28;20904;-71
2022/10/28 11:00:54;;;;;;;2.60;0.50;;;21.80;1.00;;;;;;5104873;28;20499;-71
2022/10/28 11:03:25;;;;;;;0.80;0.40;;;21.80;1.00;;;;;;5099955;28;20924;-71
2022/10/28 11:05:59;;;;;;;2.40;0.50;;;21.80;1.00;;;;;;5111078;28;20876;-71
2022/10/28 11:08:36;;;;;;;0.70;0.40;;;21.90;99.90;;;;;;5095188;28;20446;-71
2022/10/28 11:11:05;;;;;;;0.80;0.43;;;22.00;99.90;;;;;;5106455;28;20538;-71
2022/10/28 11:13:33;;;;;;;0.93;0.50;;;22.10;99.90;;;;;;5098105;28;21031;-71
2022/10/28 11:16:01;;;;;;;1.80;0.43;;;22.20;1.00;;;;;;5111499;28;20457;-71
2022/10/28 11:18:30;;;;;;;2.07;0.67;;;22.20;99.90;;;;;;5100498;28;20441;-72
2022/10/28 11:21:07;;;;;;;1.43;0.40;;;22.20;99.90;;;;;;5104317;28;20446;-71
2022/10/28 11:23:46;;;;;;;2.10;0.43;;;22.20;99.90;;;;;;5110406;28;20443;-71
2022/10/28 11:26:16;;;;;;;2.00;0.50;;;22.30;99.90;;;;;;5112985;28;20456;-72
2022/10/28 11:28:55;;;;;;;2.10;0.87;;;22.30;99.90;;;;;;5106179;28;20446;-72
2022/10/28 11:31:39;;;;;;;0.90;0.50;;;22.30;99.90;;;;;;5098306;28;20448;-71
2022/10/28 11:34:40;;;;;;;1.33;0.50;;;22.30;1.00;;;;;;5116605;28;20453;-72
2022/10/28 11:37:23;;;;;;;2.77;0.60;;;22.20;1.00;;;;;;5108137;28;20515;-71
2022/10/28 11:40:00;;;;;;;2.27;0.80;;;22.20;1.00;;;;;;5102018;28;20473;-71
2022/10/28 11:42:35;;;;;;;3.10;1.40;;;21.90;99.90;;;;;;5106660;28;20484;-71
2022/10/28 11:45:09;;;;;;;2.70;0.80;;;21.70;1.00;;;;;;5096703;28;20480;-72
2022/10/28 11:47:56;;;;;;;2.60;0.73;;;21.40;1.00;;;;;;5097959;28;20453;-72
2022/10/28 11:50:33;;;;;;;1.40;0.90;;;21.30;1.00;;;;;;5096520;28;20449;-71
2022/10/28 11:53:35;;;;;;;1.80;1.10;;;21.20;1.00;;;;;;5096511;28;20895;-72
2022/10/28 11:56:09;;;;;;;3.23;0.80;;;21.30;1.00;;;;;;5089243;28;21063;-72
2022/10/28 11:58:44;;;;;;;2.77;0.90;;;21.20;1.00;;;;;;5096075;28;20891;-71
2022/10/28 12:01:27;;;;;;;2.17;0.70;;;21.30;1.00;;;;;;5096988;28;20445;-71
2022/10/28 12:04:16;;;;;;;1.80;0.57;;;21.50;1.00;;;;;;5097417;28;20457;-72
2022/10/28 12:07:14;;;;;;;1.70;0.90;;;21.60;1.00;;;;;;5098229;28;20502;-71
2022/10/28 12:09:57;;;;;;;2.00;0.70;;;21.70;99.90;;;;;;5098463;28;20445;-72
2022/10/28 12:12:33;;;;;;;1.20;0.73;;;21.80;99.90;;;;;;5098405;28;20486;-71
2022/10/28 12:18:23;;;;;;;2.50;0.77;;;21.80;1.00;;;;;;5014840;28;20490;-72
2022/10/28 12:20:57;;;;;;;1.00;0.60;;;22.00;99.90;;;;;;5080617;28;20465;-72
2022/10/28 12:23:26;;;;;;;1.53;0.60;;;22.10;94.20;;;;;;5078541;28;20480;-72
2022/10/28 12:25:57;;;;;;;2.33;0.63;;;22.30;99.90;;;;;;5095798;28;20479;-72
2022/10/28 12:28:27;;;;;;;2.07;0.93;;;22.50;1.00;;;;;;5078339;28;20511;-72
2022/10/28 12:30:56;;;;;;;2.17;0.60;;;22.60;1.00;;;;;;5096901;28;20813;-69
2022/10/28 12:33:27;;;;;;;1.77;0.53;;;22.70;1.00;;;;;;5096905;28;20507;-71
2022/10/28 12:36:12;;;;;;;1.27;0.77;;;22.80;1.00;;;;;;5096831;28;20485;-70
2022/10/28 12:38:43;;;;;;;4.93;0.80;;;22.90;1.00;;;;;;5097827;28;20442;-71
2022/10/28 12:41:15;;;;;;;4.40;1.00;;;23.10;1.00;;;;;;5097524;28;20457;-72
2022/10/28 12:43:50;;;;;;;4.80;1.00;;;23.00;1.00;;;;;;5097387;28;20576;-70
2022/10/28 12:46:25;;;;;;;1.43;0.80;;;22.90;1.00;;;;;;5097744;28;20518;-70
2022/10/28 12:48:58;;;;;;;1.80;0.80;;;22.80;58.30;;;;;;5097348;28;20488;-70
2022/10/28 12:51:31;;;;;;;1.63;0.80;;;22.70;99.90;;;;;;5097015;28;20551;-70
2022/10/28 12:54:03;;;;;;;4.23;1.00;;;22.70;99.90;;;;;;5097802;28;20800;-70
2022/10/28 12:56:36;;;;;;;3.63;1.13;;;22.60;1.00;;;;;;5096690;28;20851;-71
2022/10/28 12:59:07;;;;;;;2.13;0.70;;;22.60;99.90;;;;;;5097414;28;20449;-69
2022/10/28 13:01:36;;;;;;;1.50;0.60;;;22.60;1.00;;;;;;5098724;28;20465;-70
2022/10/28 13:04:04;;;;;;;2.10;0.77;;;22.60;1.00;;;;;;5097352;28;20474;-70
2022/10/28 13:10:11;;;;;;;2.57;0.80;;;22.50;68.90;;;;;;5098537;28;20717;-71
2022/10/28 13:13:14;;;;;;;1.80;0.90;;;22.50;99.90;;;;;;5097051;28;20430;-71
2022/10/28 13:16:06;;;;;;;2.50;0.83;;;22.40;1.00;;;;;;5078200;28;20757;-72
2022/10/28 13:19:15;;;;;;;4.50;1.00;;;22.30;1.00;;;;;;5079882;28;20903;-71
2022/10/28 13:22:10;;;;;;;1.67;0.90;;;22.40;99.90;;;;;;5056437;28;20896;-71
2022/10/28 13:24:47;;;;;;;4.03;1.20;;;22.50;91.30;;;;;;5096752;28;20446;-70